Time;durP1;ratioP1;P1;durP2;ratioP2;P2;SDS_P1;SDS_P2;PMS_P1;PMS_P2;Temp;Humidity;BMP_temperature;BMP_pressure;BME280_temperature;BME280_humidity;BME280_pressure;Samples;Min_cycle;Max_cycle;Signal;HPM_P1;HPM_P2
2021/01/13 00:01:41;;;;;;;10.88;1.73;;;;;;;-0.76;94.06;99928.94;5056614;28;20052;-81
2021/01/13 00:04:06;;;;;;;11.13;2.35;;;;;;;-0.66;94.43;99921.47;5056694;28;20070;-81
2021/01/13 00:06:33;;;;;;;12.65;1.63;;;;;;;-0.77;94.56;99922.16;5056962;28;20024;-81
2021/01/13 00:08:58;;;;;;;8.93;1.02;;;;;;;-0.67;94.32;99922.31;5056346;28;20480;-81
2021/01/13 00:11:24;;;;;;;13.90;1.73;;;;;;;-0.70;94.15;99928.19;5056855;28;20033;-81
2021/01/13 00:13:49;;;;;;;11.18;1.27;;;;;;;-0.77;94.22;99932.31;5057280;28;20025;-81
2021/01/13 00:16:14;;;;;;;8.85;1.30;;;;;;;-0.62;93.86;99930.84;5058547;28;20429;-81
2021/01/13 00:18:40;;;;;;;9.70;0.93;;;;;;;-0.55;93.48;99922.50;5056747;28;20067;-81
2021/01/13 00:21:12;;;;;;;6.00;0.75;;;;;;;-0.55;93.60;99920.81;5056841;28;20074;-81
2021/01/13 00:23:37;;;;;;;12.52;1.38;;;;;;;-0.50;93.21;99924.28;5056904;28;20045;-81
2021/01/13 00:26:02;;;;;;;8.52;1.17;;;;;;;-0.45;92.60;99911.63;5057887;28;20461;-81
2021/01/13 00:28:28;;;;;;;7.85;1.30;;;;;;;-0.53;93.35;99910.63;5056367;28;20141;-81
2021/01/13 00:30:53;;;;;;;10.45;1.20;;;;;;;-0.64;93.46;99905.38;5058153;28;20049;-81
2021/01/13 00:33:18;;;;;;;7.53;1.60;;;;;;;-0.58;93.24;99920.75;5056954;28;20419;-81
2021/01/13 00:35:43;;;;;;;5.68;1.05;;;;;;;-0.59;93.21;99915.63;5058427;28;20078;-81
2021/01/13 00:38:09;;;;;;;8.23;1.33;;;;;;;-0.55;92.22;99920.81;5058806;28;20075;-81
2021/01/13 00:40:34;;;;;;;10.02;0.90;;;;;;;-0.53;91.83;99933.56;5057487;28;20102;-81
2021/01/13 00:42:59;;;;;;;7.70;1.00;;;;;;;-0.43;91.25;99939.66;5057482;28;20119;-81
2021/01/13 00:45:25;;;;;;;8.85;1.65;;;;;;;-0.53;91.42;99934.41;5056895;28;20025;-81
2021/01/13 00:47:50;;;;;;;9.00;0.88;;;;;;;-0.57;92.29;99924.16;5060141;28;20035;-81
2021/01/13 00:50:16;;;;;;;11.00;2.00;;;;;;;-0.49;91.86;99925.16;5057189;28;20542;-81
2021/01/13 00:52:46;;;;;;;11.40;1.25;;;;;;;-0.53;91.94;99943.75;5056353;28;20021;-81
2021/01/13 00:55:11;;;;;;;10.05;1.40;;;;;;;-0.57;92.07;99939.44;5056604;28;20031;-81
2021/01/13 00:57:36;;;;;;;10.25;1.75;;;;;;;-0.55;91.62;99927.59;5057485;28;20068;-81
2021/01/13 01:00:04;;;;;;;9.38;1.40;;;;;;;-0.56;92.13;99930.97;5056022;28;20029;-81
2021/01/13 01:02:29;;;;;;;4.40;1.00;;;;;;;-0.56;91.74;99915.69;5058231;28;20025;-81
2021/01/13 01:04:54;;;;;;;7.28;0.82;;;;;;;-0.58;91.96;99925.00;5056374;28;20462;-81
2021/01/13 01:07:20;;;;;;;9.32;1.17;;;;;;;-0.66;91.54;99934.19;5055869;28;20037;-81
2021/01/13 01:09:45;;;;;;;6.97;0.98;;;;;;;-0.60;91.87;99934.28;5057487;28;20031;-81
2021/01/13 01:12:10;;;;;;;7.60;1.30;;;;;;;-0.55;91.58;99941.19;5061657;28;20056;-80
2021/01/13 01:14:36;;;;;;;4.55;0.75;;;;;;;-0.57;91.75;99934.34;5060886;28;20033;-81
2021/01/13 01:17:08;;;;;;;8.93;0.95;;;;;;;-0.74;92.11;99923.84;5060193;28;20021;-81
2021/01/13 01:19:33;;;;;;;5.32;1.00;;;;;;;-0.70;92.91;99928.19;5060442;28;20036;-81
2021/01/13 01:21:58;;;;;;;4.97;0.90;;;;;;;-0.73;92.53;99923.91;5059625;28;20074;-81
2021/01/13 01:24:24;;;;;;;8.35;1.33;;;;;;;-0.77;92.54;99919.59;5060732;28;20064;-81
2021/01/13 01:26:49;;;;;;;5.25;1.42;;;;;;;-0.80;92.24;99923.75;5060425;28;20047;-81
2021/01/13 01:29:14;;;;;;;7.40;1.00;;;;;;;-0.78;92.40;99922.97;5060683;28;20385;-81
2021/01/13 01:31:40;;;;;;;5.97;0.80;;;;;;;-0.74;91.16;99922.19;5061090;28;20083;-81
2021/01/13 01:34:05;;;;;;;5.18;0.52;;;;;;;-0.77;91.52;99928.91;5061563;28;20025;-81
2021/01/13 01:36:31;;;;;;;7.30;0.90;;;;;;;-0.83;91.44;99929.69;5061760;28;20024;-81
2021/01/13 01:38:56;;;;;;;7.00;1.13;;;;;;;-0.93;91.73;99926.09;5061057;28;20024;-81
2021/01/13 01:41:23;;;;;;;6.05;0.68;;;;;;;-0.78;90.79;99925.50;5061950;28;20028;-81
2021/01/13 01:43:49;;;;;;;5.38;0.80;;;;;;;-0.87;91.29;99927.03;5060706;28;20020;-81
2021/01/13 01:46:15;;;;;;;5.18;0.80;;;;;;;-0.82;91.20;99917.81;5059762;28;20079;-81
2021/01/13 01:48:56;;;;;;;4.53;0.80;;;;;;;-0.68;90.52;99930.75;5061007;28;20495;-81
2021/01/13 01:51:41;;;;;;;8.18;1.00;;;;;;;-0.57;90.80;99937.75;5060051;28;20366;-81
2021/01/13 01:54:13;;;;;;;7.85;2.45;;;;;;;-0.62;91.20;99930.84;5061023;28;20025;-81
2021/01/13 01:56:43;;;;;;;8.45;1.00;;;;;;;-0.60;91.29;99922.41;5061731;28;20028;-81
2021/01/13 01:59:14;;;;;;;11.52;1.27;;;;;;;-0.57;91.68;99924.16;5060575;28;20047;-81
2021/01/13 02:01:42;;;;;;;7.53;1.20;;;;;;;-0.57;91.92;99914.81;5059748;28;20084;-81
2021/01/13 02:04:26;;;;;;;9.57;1.45;;;;;;;-0.57;92.33;99917.38;5060153;28;20024;-81
2021/01/13 02:06:51;;;;;;;14.93;3.63;;;;;;;-0.63;92.61;99918.97;5060290;28;20096;-81
2021/01/13 02:09:16;;;;;;;6.40;0.73;;;;;;;-0.70;93.16;99907.81;5059966;28;20052;-80
2021/01/13 02:11:49;;;;;;;8.27;1.00;;;;;;;-0.67;92.55;99901.94;5061566;28;20535;-80
2021/01/13 02:14:15;;;;;;;14.10;1.40;;;;;;;-0.79;93.11;99912.75;5062535;28;20029;-80
2021/01/13 02:16:47;;;;;;;9.75;1.17;;;;;;;-0.78;93.90;99899.19;5062967;28;20085;-80
2021/01/13 02:19:38;;;;;;;8.63;1.17;;;;;;;-0.63;92.84;99901.13;5060700;28;20380;-80
2021/01/13 02:22:10;;;;;;;8.18;1.55;;;;;;;-0.59;92.71;99900.34;5060309;28;20025;-80
2021/01/13 02:24:47;;;;;;;6.75;1.15;;;;;;;-0.57;92.47;99913.97;5062421;28;20021;-80
2021/01/13 02:27:46;;;;;;;10.90;1.42;;;;;;;-0.54;92.46;99909.78;5061714;28;20029;-80
2021/01/13 02:33:42;;;;;;;6.85;1.27;;;;;;;-0.43;92.00;99904.00;5065415;28;20094;-80
2021/01/13 02:36:18;;;;;;;15.88;2.17;;;;;;;-0.59;92.70;99913.06;5071264;28;20572;-80
2021/01/13 02:42:13;;;;;;;13.10;1.85;;;;;;;-0.59;92.75;99900.34;5072875;28;20051;-80
2021/01/13 02:44:54;;;;;;;12.60;1.40;;;;;;;-0.53;92.34;99898.75;5061556;28;20087;-80
2021/01/13 02:47:34;;;;;;;13.20;1.35;;;;;;;-0.61;92.97;99895.25;5056959;28;20017;-81
2021/01/13 02:50:00;;;;;;;10.93;1.25;;;;;;;-0.58;92.87;99909.72;5055434;28;20020;-80
2021/01/13 02:52:37;;;;;;;13.00;1.30;;;;;;;-0.46;92.40;99902.28;5056163;28;20550;-81
2021/01/13 02:55:04;;;;;;;9.30;1.52;;;;;;;-0.42;92.00;99904.03;5056568;28;20496;-80
2021/01/13 02:57:37;;;;;;;13.70;1.83;;;;;;;-0.41;92.11;99895.53;5056083;28;20025;-80
2021/01/13 03:00:04;;;;;;;10.43;1.77;;;;;;;-0.47;92.21;99890.34;5056551;28;20541;-80
2021/01/13 03:02:36;;;;;;;21.27;1.77;;;;;;;-0.37;92.10;99892.22;5056556;28;20036;-80
2021/01/13 03:05:01;;;;;;;12.02;3.17;;;;;;;-0.36;92.31;99903.28;5054970;28;20029;-80
2021/01/13 03:07:33;;;;;;;15.10;1.67;;;;;;;-0.39;92.10;99916.81;5056255;28;20444;-80
2021/01/13 03:10:13;;;;;;;11.05;1.55;;;;;;;-0.42;92.47;99926.97;5055407;28;20435;-80
2021/01/13 03:12:41;;;;;;;8.82;1.30;;;;;;;-0.39;92.67;99924.47;5055532;28;20469;-81
2021/01/13 03:15:08;;;;;;;12.82;1.38;;;;;;;-0.47;93.11;99916.69;5056275;28;20029;-81
2021/01/13 03:17:33;;;;;;;8.85;1.38;;;;;;;-0.56;92.76;99913.97;5056038;28;20029;-81
2021/01/13 03:20:29;;;;;;;11.10;1.27;;;;;;;-0.64;93.05;99907.94;5056406;28;20039;-81
2021/01/13 03:23:23;;;;;;;13.43;1.55;;;;;;;-0.61;93.07;99909.66;5056665;28;20255;-81
2021/01/13 03:26:00;;;;;;;17.67;1.52;;;;;;;-0.53;93.14;99908.09;5054683;28;20074;-81
2021/01/13 03:28:30;;;;;;;9.82;1.45;;;;;;;-0.51;92.75;99920.00;5055829;28;20017;-81
2021/01/13 03:30:57;;;;;;;14.98;1.85;;;;;;;-0.45;93.14;99908.22;5059210;28;20037;-81
2021/01/13 03:33:25;;;;;;;16.00;1.75;;;;;;;-0.44;93.18;99898.03;5055013;28;20028;-80
2021/01/13 03:36:09;;;;;;;14.23;2.40;;;;;;;-0.36;92.87;99911.75;5056610;28;20028;-80
2021/01/13 03:38:45;;;;;;;11.23;1.48;;;;;;;-0.35;92.49;99905.81;5057836;28;20029;-80
2021/01/13 03:41:13;;;;;;;5.35;1.13;;;;;;;-0.37;92.94;99907.50;5057036;28;20037;-80
2021/01/13 03:43:39;;;;;;;13.10;1.30;;;;;;;-0.39;93.59;99921.91;5055450;28;20025;-81
2021/01/13 03:46:07;;;;;;;8.55;1.55;;;;;;;-0.40;93.56;99917.66;5056620;28;20499;-81
2021/01/13 03:48:36;;;;;;;13.13;1.10;;;;;;;-0.39;93.24;99933.78;5056154;28;20072;-81
2021/01/13 03:51:02;;;;;;;14.32;1.40;;;;;;;-0.40;93.65;99930.41;5055021;28;20086;-81
2021/01/13 03:53:29;;;;;;;8.68;1.35;;;;;;;-0.32;93.66;99925.41;5056722;28;20029;-81
2021/01/13 03:55:57;;;;;;;18.08;2.00;;;;;;;-0.32;93.51;99915.22;5054755;28;20043;-81
2021/01/13 03:58:50;;;;;;;8.43;1.00;;;;;;;-0.27;93.31;99913.59;5055835;28;20032;-81
2021/01/13 04:01:21;;;;;;;12.20;1.42;;;;;;;-0.21;92.58;99917.94;5055526;28;20025;-81
2021/01/13 04:03:54;;;;;;;8.93;0.90;;;;;;;-0.22;92.87;99921.31;5055579;28;20059;-81
2021/01/13 04:06:20;;;;;;;14.05;1.48;;;;;;;-0.25;93.44;99917.91;5054769;28;20081;-81
2021/01/13 04:08:46;;;;;;;6.88;0.75;;;;;;;-0.22;93.18;99921.31;5056379;28;20485;-81
2021/01/13 04:11:14;;;;;;;6.40;1.15;;;;;;;-0.18;93.02;99928.19;5055601;28;20108;-81
2021/01/13 04:13:44;;;;;;;12.02;1.23;;;;;;;-0.16;92.94;99926.50;5056137;28;20380;-81
2021/01/13 04:16:15;;;;;;;5.85;1.00;;;;;;;-0.20;93.05;99938.34;5054666;28;20019;-81
2021/01/13 04:18:42;;;;;;;10.88;1.30;;;;;;;-0.33;93.78;99926.25;5055973;28;20389;-81
2021/01/13 04:21:10;;;;;;;9.70;1.42;;;;;;;-0.38;94.22;99926.16;5055824;28;20104;-81
2021/01/13 04:23:36;;;;;;;8.20;0.90;;;;;;;-0.46;94.43;99927.75;5054476;28;20043;-81
2021/01/13 04:26:04;;;;;;;11.65;1.10;;;;;;;-0.41;93.99;99928.66;5055572;28;20021;-82
2021/01/13 04:28:29;;;;;;;10.40;1.50;;;;;;;-0.37;94.22;99921.91;5054866;28;20136;-81
2021/01/13 04:30:55;;;;;;;14.82;1.40;;;;;;;-0.39;94.99;99913.41;5055674;28;20061;-81
2021/01/13 04:33:21;;;;;;;8.13;1.52;;;;;;;-0.29;94.66;99913.56;5054377;28;20024;-81
2021/01/13 04:35:46;;;;;;;15.13;2.03;;;;;;;-0.28;94.84;99907.66;5055691;28;20490;-81
2021/01/13 04:38:16;;;;;;;14.20;1.40;;;;;;;-0.23;94.79;99905.16;5054173;28;20025;-82
2021/01/13 04:40:49;;;;;;;13.77;2.25;;;;;;;-0.15;94.50;99902.75;5053466;28;20029;-82
2021/01/13 04:43:14;;;;;;;14.88;1.52;;;;;;;-0.19;94.55;99899.25;5053651;28;20020;-82
2021/01/13 04:45:45;;;;;;;12.68;1.75;;;;;;;-0.15;94.30;99887.44;5057089;28;20056;-82
2021/01/13 04:48:12;;;;;;;11.65;1.33;;;;;;;-0.11;94.46;99891.75;5057521;28;20021;-82
2021/01/13 04:50:40;;;;;;;12.82;1.60;;;;;;;-0.10;94.75;99898.53;5057852;28;20361;-82
2021/01/13 04:53:12;;;;;;;14.10;1.45;;;;;;;-0.09;94.23;99896.03;5057900;28;20029;-82
2021/01/13 04:55:45;;;;;;;8.52;1.42;;;;;;;-0.15;94.54;99892.53;5057608;28;20039;-82
2021/01/13 04:58:47;;;;;;;8.38;1.00;;;;;;;-0.30;95.01;99895.72;5057079;28;20057;-82
2021/01/13 05:01:54;;;;;;;10.10;1.50;;;;;;;-0.44;95.21;99884.47;5057285;28;20032;-82
2021/01/13 05:04:59;;;;;;;11.00;1.52;;;;;;;-0.47;95.10;99865.72;5057223;28;20029;-81
2021/01/13 05:07:42;;;;;;;10.93;2.78;;;;;;;-0.53;95.20;99858.00;5058773;28;20051;-82
2021/01/13 05:10:15;;;;;;;5.25;1.00;;;;;;;-0.47;95.75;99854.69;5056886;28;20025;-82
2021/01/13 05:12:56;;;;;;;9.38;1.38;;;;;;;-0.49;95.42;99854.69;5058404;28;20067;-82
2021/01/13 05:15:26;;;;;;;7.28;1.40;;;;;;;-0.47;95.86;99859.78;5059383;28;20362;-82
2021/01/13 05:18:01;;;;;;;10.00;1.50;;;;;;;-0.40;95.56;99859.06;5057943;28;20025;-82
2021/01/13 05:20:27;;;;;;;;;;;;;;;-0.41;95.65;99852.25;5058551;28;20028;-82
2021/01/13 05:22:54;;;;;;;8.90;1.45;;;;;;;-0.44;95.78;99849.66;5056995;28;20379;-82
2021/01/13 05:25:38;;;;;;;9.07;2.78;;;;;;;-0.44;95.72;99853.88;5057151;28;20025;-82
2021/01/13 05:28:09;;;;;;;7.95;1.33;;;;;;;-0.44;95.77;99849.66;5059364;28;20031;-82
2021/01/13 05:31:03;;;;;;;8.75;1.85;;;;;;;-0.43;95.87;99840.31;5060606;28;20071;-82
2021/01/13 05:33:30;;;;;;;6.07;1.10;;;;;;;-0.44;96.19;99842.00;5059288;28;20037;-82
2021/01/13 05:36:01;;;;;;;5.85;1.33;;;;;;;-0.47;96.44;99840.25;5060183;28;20029;-82
2021/01/13 05:38:54;;;;;;;8.85;1.48;;;;;;;-0.42;95.86;99842.91;5059202;28;20025;-82
2021/01/13 05:41:20;;;;;;;7.30;1.48;;;;;;;-0.46;95.78;99843.69;5058492;28;20083;-82
2021/01/13 05:43:47;;;;;;;6.68;1.73;;;;;;;-0.55;95.90;99848.66;5059405;28;20028;-82
2021/01/13 05:46:15;;;;;;;7.68;1.80;;;;;;;-0.57;95.95;99840.97;5059487;28;20021;-82
2021/01/13 05:48:42;;;;;;;10.48;2.53;;;;;;;-0.59;95.69;99834.97;5059750;28;20025;-82
2021/01/13 05:51:08;;;;;;;6.15;1.80;;;;;;;-0.57;96.24;99842.66;5059805;28;20021;-81
2021/01/13 05:53:33;;;;;;;8.15;1.40;;;;;;;-0.60;96.40;99847.72;5058223;28;20021;-81
2021/01/13 05:56:02;;;;;;;7.85;1.27;;;;;;;-0.60;95.83;99848.56;5057314;28;20021;-81
2021/01/13 05:58:28;;;;;;;14.43;1.83;;;;;;;-0.59;96.37;99850.25;5058890;28;20078;-81
2021/01/13 06:00:56;;;;;;;10.88;1.33;;;;;;;-0.63;96.24;99845.13;5057730;28;20025;-81
2021/01/13 06:03:24;;;;;;;6.13;1.50;;;;;;;-0.66;96.53;99852.72;5060014;28;20480;-81
2021/01/13 06:05:54;;;;;;;9.88;2.03;;;;;;;-0.67;96.46;99851.84;5058776;28;20370;-81
2021/01/13 06:08:24;;;;;;;8.05;1.10;;;;;;;-0.60;96.39;99850.25;5058516;28;20017;-82
2021/01/13 06:10:54;;;;;;;8.45;1.05;;;;;;;-0.60;96.28;99842.63;5058229;28;20033;-81
2021/01/13 06:13:27;;;;;;;8.43;1.13;;;;;;;-0.59;96.47;99855.34;5058751;28;20070;-81
2021/01/13 06:15:57;;;;;;;6.47;1.00;;;;;;;-0.57;96.60;99842.66;5059802;28;20021;-81
2021/01/13 06:18:23;;;;;;;6.28;1.20;;;;;;;-0.53;96.40;99849.50;5058291;28;20028;-81
2021/01/13 06:20:48;;;;;;;9.15;2.25;;;;;;;-0.52;96.42;99846.16;5059344;28;20029;-81
2021/01/13 06:23:16;;;;;;;6.63;1.40;;;;;;;-0.54;96.42;99841.00;5057896;28;20052;-81
2021/01/13 06:25:42;;;;;;;12.82;1.80;;;;;;;-0.52;96.47;99851.25;5058322;28;20032;-81
2021/01/13 06:28:24;;;;;;;7.90;2.05;;;;;;;-0.48;96.45;99861.47;5059824;28;20021;-81
2021/01/13 06:31:04;;;;;;;10.77;1.40;;;;;;;-0.41;96.51;99849.69;5058408;28;20439;-81
2021/01/13 06:33:52;;;;;;;10.10;2.28;;;;;;;-0.40;96.42;99858.19;5058512;28;20021;-81
2021/01/13 06:36:35;;;;;;;9.73;1.65;;;;;;;-0.37;96.40;99848.91;5058109;28;20107;-81
2021/01/13 06:39:05;;;;;;;11.45;2.03;;;;;;;-0.37;96.24;99854.00;5057701;28;20047;-81
2021/01/13 06:41:44;;;;;;;7.10;1.40;;;;;;;-0.40;96.05;99838.69;5057756;28;20051;-81
2021/01/13 06:44:09;;;;;;;4.85;1.20;;;;;;;-0.39;96.10;99855.69;5058184;28;20039;-81
2021/01/13 06:46:35;;;;;;;10.60;1.65;;;;;;;-0.38;96.65;99851.44;5057756;28;20112;-81
2021/01/13 06:49:16;;;;;;;11.43;1.55;;;;;;;-0.38;96.20;99842.09;5057517;28;20025;-81
2021/01/13 06:51:46;;;;;;;10.75;2.10;;;;;;;-0.33;96.12;99847.28;5057810;28;20508;-82
2021/01/13 06:54:14;;;;;;;3.42;1.05;;;;;;;-0.35;96.30;99837.03;5059270;28;20021;-81
2021/01/13 06:56:57;;;;;;;6.95;1.30;;;;;;;-0.38;96.33;99839.53;5059171;28;20074;-81
2021/01/13 06:59:23;;;;;;;7.57;1.30;;;;;;;-0.34;96.52;99841.31;5060725;28;20032;-82
2021/01/13 07:01:50;;;;;;;10.15;1.52;;;;;;;-0.36;96.16;99837.88;5060242;28;20473;-82
2021/01/13 07:04:15;;;;;;;7.43;1.50;;;;;;;-0.31;96.46;99835.38;5058384;28;20059;-81
2021/01/13 07:06:58;;;;;;;9.32;1.83;;;;;;;-0.32;96.51;99838.78;5058105;28;20079;-81
2021/01/13 07:09:23;;;;;;;8.95;1.52;;;;;;;-0.31;96.14;99845.56;5058129;28;20047;-81
2021/01/13 07:11:50;;;;;;;10.45;1.63;;;;;;;-0.27;96.45;99830.38;5058665;28;20512;-82
2021/01/13 07:14:17;;;;;;;12.10;1.48;;;;;;;-0.27;96.78;99839.72;5060086;28;20028;-81
2021/01/13 07:16:42;;;;;;;12.45;1.65;;;;;;;-0.24;96.49;99839.75;5061065;28;20013;-81
2021/01/13 07:19:07;;;;;;;11.07;1.55;;;;;;;-0.26;96.51;99826.97;5060491;28;20021;-81
2021/01/13 07:21:41;;;;;;;10.30;1.30;;;;;;;-0.21;96.34;99837.25;5059485;28;20033;-81
2021/01/13 07:24:11;;;;;;;8.13;1.33;;;;;;;-0.14;96.03;99843.28;5058565;28;20035;-82
2021/01/13 07:26:41;;;;;;;12.63;1.80;;;;;;;-0.13;95.90;99842.44;5058675;28;20485;-81
2021/01/13 07:29:07;;;;;;;8.55;1.10;;;;;;;-0.09;95.71;99826.38;5060528;28;20036;-82
2021/01/13 07:31:33;;;;;;;7.72;1.70;;;;;;;-0.04;96.06;99842.56;5058798;28;20021;-81
2021/01/13 07:34:10;;;;;;;11.20;1.48;;;;;;;-0.01;96.08;99830.69;5058629;28;20021;-82
2021/01/13 07:36:38;;;;;;;6.25;1.10;;;;;;;0.01;95.66;99820.53;5060196;28;20029;-82
2021/01/13 07:39:05;;;;;;;6.13;0.77;;;;;;;-0.01;95.48;99830.69;5059423;28;20025;-83
2021/01/13 07:42:04;;;;;;;9.82;1.30;;;;;;;-0.07;95.62;99832.31;5060652;28;20451;-82
2021/01/13 07:44:43;;;;;;;6.47;0.95;;;;;;;-0.04;95.37;99848.50;5061337;28;20043;-82
2021/01/13 07:47:50;;;;;;;13.23;1.15;;;;;;;-0.02;95.47;99863.84;5059918;28;20035;-82
2021/01/13 07:50:17;;;;;;;7.32;0.90;;;;;;;-0.11;95.67;99866.25;5065374;28;20021;-81
2021/01/13 07:52:45;;;;;;;7.63;1.10;;;;;;;-0.20;95.88;99873.78;5069993;28;20020;-81
2021/01/13 07:55:20;;;;;;;7.60;1.40;;;;;;;-0.25;95.69;99869.47;5063760;28;20352;-82
2021/01/13 07:57:54;;;;;;;4.38;1.25;;;;;;;-0.27;96.16;99873.69;5059763;28;20120;-82
2021/01/13 08:00:33;;;;;;;12.80;1.38;;;;;;;-0.19;95.47;99871.22;5059082;28;20051;-82
2021/01/13 08:02:58;;;;;;;9.52;1.10;;;;;;;-0.21;95.16;99859.34;5059243;28;20108;-82
2021/01/13 08:06:14;;;;;;;10.13;1.30;;;;;;;-0.19;95.51;99867.84;5057243;28;20063;-82
2021/01/13 08:09:00;;;;;;;4.65;0.88;;;;;;;-0.21;95.64;99864.44;5057682;28;20639;-82
2021/01/13 08:12:09;;;;;;;11.65;1.38;;;;;;;-0.26;95.72;99855.00;5057015;28;20025;-82
2021/01/13 08:14:51;;;;;;;8.18;1.20;;;;;;;-0.25;95.50;99849.09;5038820;28;20087;-82
2021/01/13 08:17:39;;;;;;;5.15;0.85;;;;;;;-0.16;95.87;99844.94;5057429;28;20469;-83
2021/01/13 08:20:33;;;;;;;2.83;0.68;;;;;;;-0.19;95.64;99838.09;5055728;28;20025;-82
2021/01/13 08:23:10;;;;;;;5.95;1.00;;;;;;;-0.22;95.73;99832.13;5056996;28;20036;-81
2021/01/13 08:25:37;;;;;;;7.30;1.23;;;;;;;-0.30;95.72;99843.06;5057902;28;20021;-80
2021/01/13 08:28:02;;;;;;;6.63;1.23;;;;;;;-0.32;95.88;99839.63;5055709;28;20032;-80
2021/01/13 08:30:30;;;;;;;4.75;0.95;;;;;;;-0.26;96.00;99839.72;5055296;28;20481;-81
2021/01/13 08:33:00;;;;;;;5.07;1.10;;;;;;;-0.16;95.76;99814.34;5056485;28;20017;-81
2021/01/13 08:35:34;;;;;;;6.80;1.23;;;;;;;0.05;95.05;99816.31;5055686;28;20021;-82
2021/01/13 08:38:08;;;;;;;11.25;2.30;;;;;;;0.23;93.67;99817.41;5060083;28;20060;-80
2021/01/13 08:40:34;;;;;;;8.57;1.02;;;;;;;0.22;94.05;99810.59;5056464;28;20542;-80
2021/01/13 08:43:17;;;;;;;5.88;0.90;;;;;;;0.04;94.81;99810.38;5056841;28;20074;-80
2021/01/13 08:45:44;;;;;;;6.35;1.27;;;;;;;-0.03;95.16;99813.69;5056504;28;20393;-81
2021/01/13 08:48:18;;;;;;;7.50;1.20;;;;;;;-0.07;95.11;99794.09;5056660;28;20036;-81
2021/01/13 08:51:04;;;;;;;6.22;0.75;;;;;;;-0.09;95.46;99790.69;5058338;28;20029;-80
2021/01/13 08:53:30;;;;;;;5.13;0.77;;;;;;;-0.16;94.96;99793.97;5057552;28;20021;-80
2021/01/13 08:55:56;;;;;;;5.25;1.00;;;;;;;-0.17;95.20;99782.06;5056578;28;20074;-80
2021/01/13 08:58:29;;;;;;;7.05;1.00;;;;;;;-0.04;94.33;99778.84;5057646;28;20025;-80
2021/01/13 09:01:05;;;;;;;5.93;0.70;;;;;;;0.09;93.95;99775.56;5056996;28;20036;-80
2021/01/13 09:03:50;;;;;;;15.10;1.67;;;;;;;0.22;93.76;99785.09;5056755;28;20154;-80
2021/01/13 09:06:24;;;;;;;10.93;1.60;;;;;;;0.43;93.55;99788.69;5056416;28;20027;-79
2021/01/13 09:08:51;;;;;;;10.52;1.55;;;;;;;0.58;92.99;99786.28;5057247;28;20025;-80
2021/01/13 09:11:46;;;;;;;9.65;1.55;;;;;;;0.66;93.17;99794.03;5057797;28;20087;-80
2021/01/13 09:14:22;;;;;;;7.82;1.67;;;;;;;0.52;93.27;99804.09;5043002;28;20044;-80
2021/01/13 09:16:52;;;;;;;11.73;1.55;;;;;;;0.41;94.19;99786.16;5055800;28;20032;-80
2021/01/13 09:19:29;;;;;;;11.40;1.52;;;;;;;0.38;94.50;99783.56;5055718;28;20039;-80
2021/01/13 09:21:59;;;;;;;6.55;1.52;;;;;;;0.33;94.06;99769.91;5055748;28;20031;-80
2021/01/13 09:24:25;;;;;;;10.13;1.80;;;;;;;0.37;94.45;99775.88;5056057;28;20021;-80
2021/01/13 09:26:56;;;;;;;14.68;2.53;;;;;;;0.59;93.76;99776.97;5057645;28;20033;-80
2021/01/13 09:29:22;;;;;;;7.57;2.15;;;;;;;0.67;92.86;99788.94;5055095;28;20032;-80
2021/01/13 09:32:11;;;;;;;9.23;1.63;;;;;;;0.87;92.70;99775.50;5055702;28;20476;-80
2021/01/13 09:34:36;;;;;;;8.68;2.20;;;;;;;0.85;92.37;99780.59;5058667;28;20017;-80
2021/01/13 09:37:02;;;;;;;7.18;1.55;;;;;;;0.72;92.62;99781.34;5058742;28;20032;-80
2021/01/13 09:39:39;;;;;;;11.77;1.95;;;;;;;0.62;93.33;99774.44;5058597;28;20075;-80
2021/01/13 09:42:07;;;;;;;10.90;1.70;;;;;;;0.93;92.50;99783.22;5058442;28;20029;-80
2021/01/13 09:44:35;;;;;;;9.90;1.70;;;;;;;0.83;92.78;99772.09;5061436;28;20017;-80
2021/01/13 09:47:20;;;;;;;13.50;1.48;;;;;;;0.90;93.35;99767.88;5061824;28;20059;-80
2021/01/13 09:49:48;;;;;;;14.20;1.80;;;;;;;1.15;91.92;99764.66;5060309;28;20024;-80
2021/01/13 09:52:14;;;;;;;12.45;2.17;;;;;;;1.33;91.52;99765.63;5061423;28;20044;-81
2021/01/13 09:54:47;;;;;;;14.00;2.70;;;;;;;1.30;91.68;99750.28;5060344;28;20043;-81
2021/01/13 09:57:14;;;;;;;14.40;3.47;;;;;;;1.32;92.03;99749.44;5061097;28;20021;-81
2021/01/13 09:59:57;;;;;;;9.45;2.08;;;;;;;1.31;91.19;99752.00;5059861;28;20108;-81
2021/01/13 10:02:23;;;;;;;10.18;2.00;;;;;;;1.22;91.65;99750.22;5062534;28;20029;-81
2021/01/13 10:04:52;;;;;;;7.50;1.27;;;;;;;1.27;91.38;99760.50;5060008;28;20036;-81
2021/01/13 10:07:21;;;;;;;7.38;1.30;;;;;;;1.25;91.22;99752.81;5061863;28;20032;-81
2021/01/13 10:09:46;;;;;;;9.68;1.75;;;;;;;1.27;92.05;99748.56;5062100;28;20464;-81
2021/01/13 10:12:12;;;;;;;15.93;1.45;;;;;;;1.31;92.06;99745.19;5060911;28;20025;-81
2021/01/13 10:14:49;;;;;;;14.10;2.13;;;;;;;1.49;90.99;99739.31;5060164;28;20032;-81
2021/01/13 10:17:24;;;;;;;12.32;1.58;;;;;;;1.49;90.78;99738.47;5060439;28;20025;-81
2021/01/13 10:19:49;;;;;;;13.35;1.98;;;;;;;1.56;90.95;99735.94;5061663;28;20029;-81
2021/01/13 10:22:17;;;;;;;14.95;1.95;;;;;;;1.77;89.30;99729.22;5061128;28;20065;-81
2021/01/13 10:24:42;;;;;;;19.88;2.78;;;;;;;1.61;90.38;99744.50;5060996;28;20024;-81
2021/01/13 10:27:09;;;;;;;11.57;2.08;;;;;;;1.45;92.23;99732.50;5060607;28;20023;-81
2021/01/13 10:29:35;;;;;;;11.50;1.75;;;;;;;1.41;91.96;99724.78;5061354;28;20418;-81
2021/01/13 10:32:00;;;;;;;6.03;0.88;;;;;;;1.39;91.72;99719.69;5061661;28;20060;-82
2021/01/13 10:34:25;;;;;;;11.30;1.70;;;;;;;1.64;90.21;99702.78;5063409;28;20077;-81
2021/01/13 10:36:52;;;;;;;11.65;1.77;;;;;;;2.03;88.95;99703.72;5063674;28;20028;-82
2021/01/13 10:39:24;;;;;;;9.73;1.35;;;;;;;2.21;89.12;99708.03;5065159;28;20024;-82
2021/01/13 10:42:03;;;;;;;10.70;1.55;;;;;;;2.06;89.99;99696.94;5075309;28;20036;-82
2021/01/13 10:44:28;;;;;;;11.65;1.50;;;;;;;1.75;90.65;99701.09;5071075;28;20085;-82
2021/01/13 10:46:59;;;;;;;8.88;1.42;;;;;;;1.64;91.55;99696.81;5063586;28;20104;-82
2021/01/13 10:49:33;;;;;;;9.57;1.65;;;;;;;1.61;90.10;99689.97;5066367;28;20017;-82
2021/01/13 10:52:18;;;;;;;11.63;1.67;;;;;;;1.56;91.71;99700.16;5066146;28;20424;-82
2021/01/13 10:54:46;;;;;;;10.00;1.73;;;;;;;1.56;90.89;99692.50;5063487;28;20025;-81
2021/01/13 10:57:16;;;;;;;8.98;1.77;;;;;;;1.58;92.17;99692.53;5061098;28;20477;-81
2021/01/13 10:59:42;;;;;;;10.77;1.20;;;;;;;1.73;91.11;99692.59;5062326;28;20114;-81
2021/01/13 11:02:13;;;;;;;15.48;1.65;;;;;;;2.21;89.73;99675.63;5098618;22;20048;-80
2021/01/13 11:04:44;;;;;;;12.15;1.60;;;;;;;2.16;89.73;99673.94;5066070;28;20024;-80
2021/01/13 11:07:10;;;;;;;18.02;1.95;;;;;;;2.04;90.07;99672.22;5064541;28;20431;-81
2021/01/13 11:09:41;;;;;;;14.50;1.70;;;;;;;2.06;89.71;99670.50;5081877;28;20028;-81
2021/01/13 11:12:09;;;;;;;13.50;1.83;;;;;;;1.93;89.27;99666.22;5059183;28;20426;-80
2021/01/13 11:14:37;;;;;;;13.80;1.48;;;;;;;1.84;90.44;99683.22;5078323;28;20107;-80
2021/01/13 11:17:05;;;;;;;16.23;1.80;;;;;;;1.95;90.92;99677.31;5063129;28;20070;-80
2021/01/13 11:19:31;;;;;;;9.57;1.88;;;;;;;2.01;90.31;99667.94;5065444;28;20115;-80
2021/01/13 11:21:58;;;;;;;13.25;1.95;;;;;;;2.15;90.54;99665.38;5084519;28;20052;-80
2021/01/13 11:24:31;;;;;;;14.02;1.80;;;;;;;2.11;90.25;99647.50;5065324;28;20027;-81
2021/01/13 11:27:03;;;;;;;12.18;1.75;;;;;;;2.18;89.83;99647.50;5082921;28;20044;-80
2021/01/13 11:29:33;;;;;;;12.00;1.85;;;;;;;2.44;89.45;99654.34;5082230;28;20472;-80
2021/01/13 11:32:00;;;;;;;10.20;1.95;;;;;;;2.41;88.40;99646.66;5081085;28;20044;-81
2021/01/13 11:34:27;;;;;;;7.20;1.20;;;;;;;2.28;89.17;99645.81;5081607;28;20107;-80
2021/01/13 11:37:35;;;;;;;14.60;1.75;;;;;;;2.21;89.54;99633.84;5079072;28;20016;-81
2021/01/13 11:40:24;;;;;;;13.15;2.50;;;;;;;2.28;90.09;99615.97;5045705;28;20128;-80
2021/01/13 11:43:27;;;;;;;11.02;1.60;;;;;;;2.31;89.14;99622.78;5060322;28;20021;-80
2021/01/13 11:46:11;;;;;;;16.10;2.90;;;;;;;2.44;88.64;99593.78;5077701;28;20107;-80
2021/01/13 11:49:05;;;;;;;11.73;2.03;;;;;;;2.32;88.59;99587.81;5059236;28;20047;-80
2021/01/13 11:51:38;;;;;;;12.95;1.58;;;;;;;2.35;87.84;99575.88;5077522;28;20020;-80
2021/01/13 11:54:03;;;;;;;16.10;1.73;;;;;;;2.56;86.90;99563.91;5077613;28;20075;-80
2021/01/13 11:56:30;;;;;;;13.20;2.17;;;;;;;2.61;87.43;99545.09;5059310;28;20485;-80
2021/01/13 11:58:55;;;;;;;12.63;2.10;;;;;;;2.71;86.93;99551.06;5059504;28;20024;-80
2021/01/13 12:01:24;;;;;;;13.52;1.65;;;;;;;2.76;86.42;99539.94;5076858;28;20499;-80